createdAt,value
2023-05-13T00:03:33.446Z,98342.06
2023-05-13T00:06:00.827Z,98339.66
2023-05-13T00:08:27.649Z,98341.06
2023-05-13T00:10:54.764Z,98341.31
2023-05-13T00:13:22.107Z,98335.81
2023-05-13T00:15:49.353Z,98338.16
2023-05-13T00:18:16.347Z,98338.41
2023-05-13T00:20:43.553Z,98333.25
2023-05-13T00:23:11.612Z,98337.63
2023-05-13T00:25:39.007Z,98342.66
2023-05-13T00:28:05.999Z,98346.06
2023-05-13T00:30:32.964Z,98351.38
2023-05-13T00:33:01.161Z,98349.94
2023-05-13T00:35:28.609Z,98347.72
2023-05-13T00:37:57.018Z,98355.50
2023-05-13T00:40:25.232Z,98342.59
2023-05-13T00:42:52.684Z,98341.28
2023-05-13T00:45:20.088Z,98341.84
2023-05-13T00:47:48.511Z,98346.72
2023-05-13T00:50:16.066Z,98341.06
2023-05-13T00:52:44.723Z,98335.56
2023-05-13T00:55:12.174Z,98343.56
2023-05-13T00:57:40.660Z,98336.41
2023-05-13T01:00:08.856Z,98341.84
2023-05-13T01:03:02.931Z,98341.84
2023-05-13T01:05:50.403Z,98347.53
2023-05-13T01:08:35.912Z,98340.88
2023-05-13T01:11:11.921Z,98336.41
2023-05-13T01:13:43.557Z,98342.16
2023-05-13T01:16:36.148Z,98357.03
2023-05-13T01:19:13.120Z,98347.09
2023-05-13T01:21:40.503Z,98344.28
2023-05-13T01:24:08.319Z,98346.66
2023-05-13T01:26:35.671Z,98336.88
2023-05-13T01:29:03.495Z,98349.25
2023-05-13T01:31:33.133Z,98334.19
2023-05-13T01:34:00.435Z,98340.38
2023-05-13T01:36:29.523Z,98339.00
2023-05-13T01:38:58.749Z,98342.63
2023-05-13T01:41:27.591Z,98341.09
2023-05-13T01:43:54.798Z,98348.81
2023-05-13T01:46:22.591Z,98342.78
2023-05-13T01:48:51.132Z,98342.75
2023-05-13T01:51:18.487Z,98335.88
2023-05-13T01:53:45.677Z,98337.88
2023-05-13T01:56:12.702Z,98335.47
2023-05-13T01:58:39.615Z,98336.75
2023-05-13T02:01:07.154Z,98338.69
2023-05-13T02:03:36.424Z,98331.97
2023-05-13T02:06:03.611Z,98339.97
2023-05-13T02:08:31.290Z,98339.81
2023-05-13T02:10:59.895Z,98339.53
2023-05-13T02:13:29.180Z,98337.31
2023-05-13T02:15:56.794Z,98332.81
2023-05-13T02:18:24.154Z,98331.84
2023-05-13T02:20:51.508Z,98330.13
2023-05-13T02:23:18.440Z,98325.63
2023-05-13T02:25:45.397Z,98319.75
2023-05-13T02:28:12.801Z,98316.94
2023-05-13T02:30:41.833Z,98323.00
2023-05-13T02:33:09.248Z,98328.31
2023-05-13T02:35:36.674Z,98319.19
2023-05-13T02:38:04.587Z,98325.53
2023-05-13T02:40:33.665Z,98321.72
2023-05-13T02:43:00.559Z,98330.41
2023-05-13T02:45:41.932Z,98331.97
2023-05-13T02:48:11.427Z,98326.06
2023-05-13T02:50:39.432Z,98325.66
2023-05-13T02:53:06.907Z,98332.06
2023-05-13T02:55:36.541Z,98329.25
2023-05-13T02:58:04.677Z,98333.50
2023-05-13T03:00:32.172Z,98321.88
2023-05-13T03:02:59.232Z,98334.19
2023-05-13T03:05:28.419Z,98333.38
2023-05-13T03:07:58.540Z,98330.16
2023-05-13T03:10:26.283Z,98328.59
2023-05-13T03:12:53.940Z,98329.13
2023-05-13T03:15:20.738Z,98324.50
2023-05-13T03:17:47.458Z,98322.81
2023-05-13T03:20:14.639Z,98324.06
2023-05-13T03:22:41.714Z,98323.66
2023-05-13T03:25:09.304Z,98326.03
2023-05-13T03:27:42.519Z,98327.16
2023-05-13T03:30:11.646Z,98334.88
2023-05-13T03:32:46.473Z,98323.13
2023-05-13T03:35:16.766Z,98327.44
2023-05-13T03:37:44.223Z,98328.84
2023-05-13T03:40:16.225Z,98334.19
2023-05-13T03:42:43.462Z,98336.31
2023-05-13T03:45:11.906Z,98335.16
2023-05-13T03:47:41.423Z,98330.53
2023-05-13T03:50:14.294Z,98344.56
2023-05-13T03:52:46.264Z,98346.97
2023-05-13T03:55:15.371Z,98346.41
2023-05-13T03:57:45.384Z,98349.06
2023-05-13T04:00:13.623Z,98356.53
2023-05-13T04:02:44.095Z,98351.88
2023-05-13T04:05:13.940Z,98352.44
2023-05-13T04:07:41.571Z,98358.66
2023-05-13T04:10:09.364Z,98359.19
2023-05-13T04:12:37.818Z,98359.22
2023-05-13T04:15:05.089Z,98360.72
2023-05-13T04:17:32.475Z,98363.97
2023-05-13T04:19:59.425Z,98366.66
2023-05-13T04:22:26.781Z,98367.22
2023-05-13T04:24:56.843Z,98371.00
2023-05-13T04:27:24.784Z,98374.63
2023-05-13T04:29:57.491Z,98375.91
2023-05-13T04:32:25.788Z,98376.34
2023-05-13T04:34:55.553Z,98373.38
2023-05-13T04:37:25.268Z,98370.88
2023-05-13T04:39:56.137Z,98373.22
2023-05-13T04:42:24.383Z,98385.16
2023-05-13T04:44:51.350Z,98386.53
2023-05-13T04:47:19.507Z,98390.06
2023-05-13T04:49:46.488Z,98392.88
2023-05-13T04:52:14.535Z,98394.78
2023-05-13T04:54:42.633Z,98385.59
2023-05-13T04:57:10.719Z,98379.75
2023-05-13T04:59:37.804Z,98390.59
2023-05-13T05:02:05.103Z,98393.00
2023-05-13T05:04:34.147Z,98401.19
2023-05-13T05:07:03.391Z,98397.59
2023-05-13T05:09:30.862Z,98401.72
2023-05-13T05:11:59.404Z,98397.34
2023-05-13T05:14:28.062Z,98405.31
2023-05-13T05:16:55.774Z,98398.09
2023-05-13T05:19:24.918Z,98396.31
2023-05-13T05:21:55.246Z,98400.88
2023-05-13T05:24:22.697Z,98400.91
2023-05-13T05:26:50.178Z,98409.34
2023-05-13T05:29:18.689Z,98398.91
2023-05-13T05:31:47.844Z,98409.66
2023-05-13T05:34:16.016Z,98399.38
2023-05-13T05:36:49.084Z,98400.22
2023-05-13T05:39:19.635Z,98401.31
2023-05-13T05:41:53.687Z,98406.22
2023-05-13T05:44:26.246Z,98415.31
2023-05-13T05:46:55.070Z,98405.56
2023-05-13T05:49:23.827Z,98413.81
2023-05-13T05:51:53.315Z,98410.75
2023-05-13T05:54:33.363Z,98416.41
2023-05-13T05:57:18.683Z,98415.19
2023-05-13T05:59:48.768Z,98404.03
2023-05-13T06:02:22.122Z,98416.78
2023-05-13T06:04:52.020Z,98411.44
2023-05-13T06:07:19.989Z,98408.09
2023-05-13T06:09:46.920Z,98406.78
2023-05-13T06:12:13.918Z,98409.44
2023-05-13T06:14:41.065Z,98409.44
2023-05-13T06:17:09.623Z,98408.28
2023-05-13T06:19:37.452Z,98410.31
2023-05-13T06:22:06.762Z,98411.38
2023-05-13T06:24:37.417Z,98410.09
2023-05-13T06:27:06.006Z,98405.44
2023-05-13T06:29:33.892Z,98407.19
2023-05-13T06:32:01.954Z,98409.19
2023-05-13T06:34:31.859Z,98413.41
2023-05-13T06:37:00.547Z,98412.34
2023-05-13T06:39:30.293Z,98407.03
2023-05-13T06:41:58.208Z,98404.19
2023-05-13T06:44:32.067Z,98407.09
2023-05-13T06:47:05.367Z,98411.22
2023-05-13T06:49:36.272Z,98409.56
2023-05-13T06:52:03.708Z,98412.34
2023-05-13T06:54:31.191Z,98413.78
2023-05-13T06:56:58.670Z,98400.44
2023-05-13T06:59:26.250Z,98409.00
2023-05-13T07:01:53.297Z,98398.94
2023-05-13T07:04:20.649Z,98405.13
2023-05-13T07:06:49.021Z,98404.84
2023-05-13T07:09:17.279Z,98407.91
2023-05-13T07:11:44.558Z,98405.03
2023-05-13T07:14:11.483Z,98407.56
2023-05-13T07:16:38.785Z,98406.25
2023-05-13T07:19:06.552Z,98401.47
2023-05-13T07:21:33.813Z,98403.19
2023-05-13T07:24:02.329Z,98402.34
2023-05-13T07:26:29.634Z,98405.03
2023-05-13T07:28:57.601Z,98402.50
2023-05-13T07:31:24.581Z,98407.97
2023-05-13T07:33:51.378Z,98404.66
2023-05-13T07:36:18.730Z,98411.00
2023-05-13T07:38:46.442Z,98410.00
2023-05-13T07:41:13.766Z,98418.34
2023-05-13T07:43:41.899Z,98413.84
2023-05-13T07:46:10.143Z,98409.91
2023-05-13T07:48:37.434Z,98406.63
2023-05-13T07:51:06.525Z,98403.03
2023-05-13T07:53:33.924Z,98409.91
2023-05-13T07:56:03.708Z,98404.22
2023-05-13T07:58:31.277Z,98413.75
2023-05-13T08:00:59.110Z,98411.63
2023-05-13T08:03:26.049Z,98406.56
2023-05-13T08:05:53.182Z,98419.03
2023-05-13T08:08:20.006Z,98414.78
2023-05-13T08:10:46.847Z,98418.69
2023-05-13T08:13:14.038Z,98414.97
2023-05-13T08:15:41.353Z,98413.25
2023-05-13T08:18:08.692Z,98419.56
2023-05-13T08:20:36.201Z,98417.41
2023-05-13T08:23:03.997Z,98424.13
2023-05-13T08:25:31.433Z,98419.16
2023-05-13T08:27:59.324Z,98419.88
2023-05-13T08:30:26.226Z,98418.69
2023-05-13T08:32:53.672Z,98430.38
2023-05-13T08:35:22.179Z,98427.31
2023-05-13T08:37:49.737Z,98420.75
2023-05-13T08:40:17.723Z,98420.34
2023-05-13T08:42:50.128Z,98428.72
2023-05-13T08:45:20.867Z,98419.06
2023-05-13T08:47:55.870Z,98428.78
2023-05-13T08:50:23.380Z,98430.66
2023-05-13T08:52:54.266Z,98434.44
2023-05-13T08:55:22.957Z,98435.66
2023-05-13T08:57:51.265Z,98440.84
2023-05-13T09:00:21.410Z,98440.59
2023-05-13T09:02:50.199Z,98449.69
2023-05-13T09:05:17.998Z,98438.44
2023-05-13T09:07:44.941Z,98441.00
2023-05-13T09:10:11.991Z,98444.28
2023-05-13T09:12:52.994Z,98449.72
2023-05-13T09:15:26.763Z,98441.91
2023-05-13T09:17:55.130Z,98443.59
2023-05-13T09:20:27.176Z,98445.13
2023-05-13T09:22:57.809Z,98446.66
2023-05-13T09:25:26.292Z,98449.25
2023-05-13T09:27:59.018Z,98452.16
2023-05-13T09:30:31.226Z,98447.56
2023-05-13T09:33:04.507Z,98458.66
2023-05-13T09:35:32.974Z,98451.16
2023-05-13T09:38:00.278Z,98460.50
2023-05-13T09:40:27.604Z,98453.69
2023-05-13T09:43:00.462Z,98454.06
2023-05-13T09:45:27.746Z,98445.88
2023-05-13T09:47:56.205Z,98463.16
2023-05-13T09:50:24.350Z,98451.69
2023-05-13T09:52:51.853Z,98459.25
2023-05-13T09:55:18.804Z,98464.84
2023-05-13T09:57:46.272Z,98462.03
2023-05-13T10:00:24.772Z,98468.28
2023-05-13T10:02:59.113Z,98448.66
2023-05-13T10:05:26.894Z,98460.34
2023-05-13T10:07:54.822Z,98456.25
2023-05-13T10:10:22.604Z,98466.97
2023-05-13T10:12:52.425Z,98468.63
2023-05-13T10:15:21.719Z,98465.97
2023-05-13T10:17:49.989Z,98466.69
2023-05-13T10:20:17.981Z,98469.94
2023-05-13T10:22:46.295Z,98470.44
2023-05-13T10:25:15.733Z,98471.63
2023-05-13T10:27:44.836Z,98479.22
2023-05-13T10:30:13.435Z,98483.44
2023-05-13T10:32:41.325Z,98479.16
2023-05-13T10:35:19.980Z,98484.97
2023-05-13T10:38:17.487Z,98482.97
2023-05-13T10:41:08.275Z,98483.66
2023-05-13T10:43:36.254Z,98488.63
2023-05-13T10:46:11.879Z,98483.56
2023-05-13T10:48:41.059Z,98471.81
2023-05-13T10:51:08.662Z,98476.31
2023-05-13T10:53:44.580Z,98476.72
2023-05-13T10:56:12.464Z,98477.69
2023-05-13T10:58:41.440Z,98472.75
2023-05-13T11:01:36.018Z,98477.56
2023-05-13T11:04:05.299Z,98482.53
2023-05-13T11:06:41.199Z,98484.06
2023-05-13T11:09:13.297Z,98480.56
2023-05-13T11:11:43.387Z,98487.28
2023-05-13T11:14:21.273Z,98482.66
2023-05-13T11:17:02.019Z,98487.97
2023-05-13T11:19:36.804Z,98487.28
2023-05-13T11:22:10.773Z,98488.81
2023-05-13T11:24:39.989Z,98487.34
2023-05-13T11:27:13.721Z,98480.34
2023-05-13T11:29:54.257Z,98475.94
2023-05-13T11:32:53.685Z,98491.97
2023-05-13T11:35:33.575Z,98491.34
2023-05-13T11:38:06.774Z,98484.19
2023-05-13T11:40:39.436Z,98488.78
2023-05-13T11:43:09.854Z,98489.34
2023-05-13T11:45:40.335Z,98486.81
2023-05-13T11:48:20.362Z,98493.13
2023-05-13T11:50:47.365Z,98489.44
2023-05-13T11:53:20.733Z,98490.84
2023-05-13T11:55:49.368Z,98485.00
2023-05-13T11:58:16.493Z,98496.63
2023-05-13T12:00:46.363Z,98484.41
2023-05-13T12:03:17.327Z,98482.84
2023-05-13T12:05:45.428Z,98491.47
2023-05-13T12:08:12.360Z,98484.81
2023-05-13T12:10:45.807Z,98486.38
2023-05-13T12:13:13.185Z,98484.53
2023-05-13T12:15:40.536Z,98484.84
2023-05-13T12:18:07.676Z,98489.94
2023-05-13T12:20:34.751Z,98488.25
2023-05-13T12:23:02.342Z,98490.03
2023-05-13T12:25:38.288Z,98491.25
2023-05-13T12:28:19.019Z,98487.22
2023-05-13T12:30:57.533Z,98493.56
2023-05-13T12:33:45.527Z,98488.75
2023-05-13T12:36:20.890Z,98487.72
2023-05-13T12:39:01.193Z,98481.69
2023-05-13T12:41:40.097Z,98482.06
2023-05-13T12:44:15.052Z,98490.13
2023-05-13T12:46:52.831Z,98489.41
2023-05-13T12:49:20.257Z,98488.75
2023-05-13T12:51:47.115Z,98492.63
2023-05-13T12:54:14.731Z,98486.56
2023-05-13T12:56:41.654Z,98492.41
2023-05-13T12:59:08.978Z,98487.06
2023-05-13T13:01:37.349Z,98485.16
2023-05-13T13:04:04.673Z,98481.00
2023-05-13T13:06:32.805Z,98482.38
2023-05-13T13:08:59.657Z,98490.25
2023-05-13T13:11:26.898Z,98487.25
2023-05-13T13:13:53.913Z,98481.66
2023-05-13T13:16:22.075Z,98491.44
2023-05-13T13:18:53.053Z,98487.56
2023-05-13T13:21:21.095Z,98479.00
2023-05-13T13:23:47.867Z,98486.09
2023-05-13T13:26:15.808Z,98483.19
2023-05-13T13:28:43.018Z,98488.47
2023-05-13T13:31:09.778Z,98478.50
2023-05-13T13:33:37.465Z,98471.13
2023-05-13T13:36:05.362Z,98465.09
2023-05-13T13:38:32.734Z,98473.78
2023-05-13T13:40:59.601Z,98470.13
2023-05-13T13:43:26.942Z,98462.13
2023-05-13T13:45:53.961Z,98472.91
2023-05-13T13:48:21.475Z,98464.06
2023-05-13T13:50:49.799Z,98464.63
2023-05-13T13:53:17.903Z,98463.22
2023-05-13T13:55:44.809Z,98459.78
2023-05-13T13:58:11.872Z,98460.72
2023-05-13T14:00:39.382Z,98461.53
2023-05-13T14:03:06.660Z,98464.78
2023-05-13T14:05:33.772Z,98467.44
2023-05-13T14:08:00.918Z,98457.81
2023-05-13T14:10:27.708Z,98470.78
2023-05-13T14:12:54.612Z,98457.84
2023-05-13T14:15:21.657Z,98458.19
2023-05-13T14:17:49.013Z,98450.91
2023-05-13T14:20:17.014Z,98460.69
2023-05-13T14:22:44.154Z,98455.50
2023-05-13T14:25:11.023Z,98447.47
2023-05-13T14:27:37.981Z,98463.28
2023-05-13T14:30:06.866Z,98456.59
2023-05-13T14:32:34.726Z,98452.56
2023-05-13T14:35:01.664Z,98455.06
2023-05-13T14:37:28.543Z,98452.44
2023-05-13T14:39:56.081Z,98447.41
2023-05-13T14:42:23.067Z,98453.31
2023-05-13T14:44:50.582Z,98446.47
2023-05-13T14:47:17.665Z,98447.72
2023-05-13T14:49:44.722Z,98446.25
2023-05-13T14:52:11.784Z,98444.38
2023-05-13T14:54:38.864Z,98444.38
2023-05-13T14:57:07.066Z,98437.53
2023-05-13T14:59:34.219Z,98442.19
2023-05-13T15:02:02.746Z,98441.34
2023-05-13T15:04:29.867Z,98436.31
2023-05-13T15:06:56.911Z,98447.41
2023-05-13T15:09:24.013Z,98443.06
2023-05-13T15:11:51.053Z,98442.25
2023-05-13T15:14:18.111Z,98445.72
2023-05-13T15:16:46.183Z,98439.72
2023-05-13T15:19:13.941Z,98443.72
2023-05-13T15:21:41.314Z,98441.53
2023-05-13T15:24:08.283Z,98442.88
2023-05-13T15:26:35.024Z,98435.50
2023-05-13T15:29:02.300Z,98442.41
2023-05-13T15:31:31.391Z,98434.66
2023-05-13T15:33:59.532Z,98431.16
2023-05-13T15:36:26.742Z,98438.84
2023-05-13T15:38:53.778Z,98426.19
2023-05-13T15:41:20.692Z,98437.53
2023-05-13T15:43:47.396Z,98435.13
2023-05-13T15:46:14.432Z,98430.13
2023-05-13T15:48:41.657Z,98428.97
2023-05-13T15:51:08.520Z,98423.94
2023-05-13T15:53:36.368Z,98425.94
2023-05-13T15:56:03.332Z,98421.75
2023-05-13T15:58:30.461Z,98435.66
2023-05-13T16:00:57.167Z,98431.13
2023-05-13T16:03:24.063Z,98426.09
2023-05-13T16:05:51.488Z,98423.19
2023-05-13T16:08:19.029Z,98424.75
2023-05-13T16:10:46.137Z,98420.56
2023-05-13T16:13:13.086Z,98424.16
2023-05-13T16:15:39.911Z,98418.47
2023-05-13T16:18:07.243Z,98422.47
2023-05-13T16:20:34.334Z,98414.31
2023-05-13T16:23:01.414Z,98413.31
2023-05-13T16:25:28.404Z,98409.16
2023-05-13T16:27:56.725Z,98410.09
2023-05-13T16:30:23.895Z,98409.63
2023-05-13T16:32:54.681Z,98406.16
2023-05-13T16:35:22.095Z,98415.53
2023-05-13T16:37:49.725Z,98396.09
2023-05-13T16:40:16.767Z,98394.03
2023-05-13T16:42:43.870Z,98399.63
2023-05-13T16:45:11.155Z,98399.16
2023-05-13T16:47:40.188Z,98399.22
2023-05-13T16:50:08.615Z,98401.22
2023-05-13T16:52:36.723Z,98397.38
2023-05-13T16:55:03.641Z,98393.53
2023-05-13T16:57:30.494Z,98395.91
2023-05-13T16:59:57.441Z,98402.25
2023-05-13T17:02:24.537Z,98400.22
2023-05-13T17:04:51.470Z,98399.91
2023-05-13T17:07:18.231Z,98394.84
2023-05-13T17:09:45.375Z,98395.03
2023-05-13T17:12:12.290Z,98411.44
2023-05-13T17:14:39.713Z,98395.19
2023-05-13T17:17:07.234Z,98401.31
2023-05-13T17:19:35.039Z,98403.38
2023-05-13T17:22:03.202Z,98403.22
2023-05-13T17:24:30.879Z,98411.31
2023-05-13T17:26:58.688Z,98408.47
2023-05-13T17:29:26.027Z,98399.25
2023-05-13T17:31:55.629Z,98398.06
2023-05-13T17:34:23.166Z,98401.88
2023-05-13T17:36:50.375Z,98391.50
2023-05-13T17:39:17.870Z,98398.88
2023-05-13T17:41:45.095Z,98389.91
2023-05-13T17:44:15.862Z,98403.16
2023-05-13T17:46:47.649Z,98395.03
2023-05-13T17:49:16.243Z,98390.31
2023-05-13T17:51:53.706Z,98401.03
2023-05-13T17:54:23.627Z,98394.63
2023-05-13T17:57:00.358Z,98404.09
2023-05-13T17:59:27.900Z,98396.06
2023-05-13T18:01:54.729Z,98391.66
2023-05-13T18:04:22.299Z,98395.19
2023-05-13T18:06:49.967Z,98404.28
2023-05-13T18:09:17.140Z,98394.69
2023-05-13T18:11:45.956Z,98389.31
2023-05-13T18:14:14.340Z,98405.63
2023-05-13T18:16:43.492Z,98398.75
2023-05-13T18:19:12.402Z,98400.59
2023-05-13T18:21:42.925Z,98398.22
2023-05-13T18:24:13.671Z,98391.88
2023-05-13T18:26:41.403Z,98386.66
2023-05-13T18:29:10.538Z,98394.38
2023-05-13T18:31:37.422Z,98395.88
2023-05-13T18:34:04.512Z,98402.41
2023-05-13T18:36:36.790Z,98397.38
2023-05-13T18:39:05.321Z,98397.34
2023-05-13T18:41:33.912Z,98405.72
2023-05-13T18:44:04.658Z,98399.81
2023-05-13T18:46:32.058Z,98400.66
2023-05-13T18:49:04.709Z,98401.31
2023-05-13T18:51:33.883Z,98401.31
2023-05-13T18:54:01.936Z,98399.97
2023-05-13T18:56:35.155Z,98411.03
2023-05-13T18:59:04.088Z,98413.94
2023-05-13T19:01:32.622Z,98425.34
2023-05-13T19:04:02.611Z,98427.81
2023-05-13T19:06:30.834Z,98425.63
2023-05-13T19:09:01.851Z,98417.97
2023-05-13T19:11:37.915Z,98428.41
2023-05-13T19:14:05.905Z,98426.78
2023-05-13T19:16:34.001Z,98438.50
2023-05-13T19:19:01.706Z,98430.63
2023-05-13T19:21:34.291Z,98434.03
2023-05-13T19:24:07.990Z,98430.34
2023-05-13T19:26:44.741Z,98440.19
2023-05-13T19:29:12.934Z,98434.97
2023-05-13T19:31:45.841Z,98434.84
2023-05-13T19:34:20.439Z,98438.28
2023-05-13T19:36:49.848Z,98436.81
2023-05-13T19:39:18.178Z,98434.50
2023-05-13T19:41:47.348Z,98440.38
2023-05-13T19:44:15.009Z,98439.81
2023-05-13T19:46:42.369Z,98431.31
2023-05-13T19:49:09.605Z,98431.72
2023-05-13T19:51:36.997Z,98431.00
2023-05-13T19:54:06.505Z,98438.66
2023-05-13T19:56:34.175Z,98440.31
2023-05-13T19:59:01.620Z,98447.22
2023-05-13T20:01:28.610Z,98442.81
2023-05-13T20:03:55.754Z,98442.53
2023-05-13T20:06:22.867Z,98451.81
2023-05-13T20:08:49.775Z,98448.34
2023-05-13T20:11:16.570Z,98439.63
2023-05-13T20:13:43.897Z,98440.69
2023-05-13T20:16:10.720Z,98435.44
2023-05-13T20:18:38.234Z,98433.22
2023-05-13T20:21:05.033Z,98438.16
2023-05-13T20:23:32.077Z,98446.56
2023-05-13T20:25:58.882Z,98442.22
2023-05-13T20:28:25.739Z,98433.94
2023-05-13T20:30:53.392Z,98433.69
2023-05-13T20:33:20.575Z,98439.03
2023-05-13T20:35:49.963Z,98435.34
2023-05-13T20:38:17.228Z,98419.53
2023-05-13T20:40:44.651Z,98432.91
2023-05-13T20:43:11.563Z,98428.38
2023-05-13T20:45:39.715Z,98427.63
2023-05-13T20:48:07.969Z,98427.41
2023-05-13T20:50:36.608Z,98434.91
2023-05-13T20:53:03.554Z,98427.63
2023-05-13T20:55:30.801Z,98424.22
2023-05-13T20:57:57.735Z,98422.84
2023-05-13T21:00:24.825Z,98425.16
2023-05-13T21:02:53.267Z,98431.91
2023-05-13T21:05:20.434Z,98429.06
2023-05-13T21:07:47.431Z,98426.69
2023-05-13T21:10:14.533Z,98416.09
2023-05-13T21:12:41.325Z,98416.41
2023-05-13T21:15:08.862Z,98422.75
2023-05-13T21:17:35.747Z,98420.47
2023-05-13T21:20:02.632Z,98421.16
2023-05-13T21:22:29.493Z,98418.78
2023-05-13T21:24:56.867Z,98424.53
2023-05-13T21:27:24.016Z,98421.03
2023-05-13T21:29:50.791Z,98414.53
2023-05-13T21:32:17.705Z,98421.06
2023-05-13T21:34:44.573Z,98414.06
2023-05-13T21:37:11.240Z,98410.81
2023-05-13T21:39:38.099Z,98410.91
2023-05-13T21:42:05.435Z,98411.06
2023-05-13T21:44:32.525Z,98407.84
2023-05-13T21:47:00.094Z,98405.53
2023-05-13T21:49:26.918Z,98398.09
2023-05-13T21:51:53.672Z,98402.75
2023-05-13T21:54:20.638Z,98399.91
2023-05-13T21:56:48.597Z,98403.88
2023-05-13T21:59:15.535Z,98404.38
2023-05-13T22:01:42.369Z,98396.41
2023-05-13T22:04:09.277Z,98403.69
2023-05-13T22:06:36.086Z,98405.75
2023-05-13T22:09:02.799Z,98407.25
2023-05-13T22:11:29.521Z,98410.75
2023-05-13T22:13:56.308Z,98407.94
2023-05-13T22:16:23.130Z,98400.28
2023-05-13T22:18:50.989Z,98403.00
2023-05-13T22:21:18.128Z,98403.16
2023-05-13T22:23:44.881Z,98390.97
2023-05-13T22:26:12.337Z,98395.09
2023-05-13T22:28:39.290Z,98398.00
2023-05-13T22:31:06.344Z,98390.97
2023-05-13T22:33:33.439Z,98390.50
2023-05-13T22:36:00.233Z,98394.09
2023-05-13T22:38:27.096Z,98387.44
2023-05-13T22:40:54.151Z,98379.13
2023-05-13T22:43:20.906Z,98375.69
2023-05-13T22:45:47.875Z,98373.47
2023-05-13T22:48:15.122Z,98374.22
2023-05-13T22:50:41.790Z,98373.38
2023-05-13T22:53:08.701Z,98376.91
2023-05-13T22:55:35.549Z,98369.66
2023-05-13T22:58:02.378Z,98380.56
2023-05-13T23:00:29.091Z,98382.09
2023-05-13T23:02:56.034Z,98381.09
2023-05-13T23:05:23.116Z,98380.81
2023-05-13T23:07:49.893Z,98381.63
2023-05-13T23:10:17.816Z,98376.81
2023-05-13T23:12:44.830Z,98373.84
2023-05-13T23:15:14.403Z,98375.63
2023-05-13T23:17:41.099Z,98370.28
2023-05-13T23:20:08.607Z,98373.91
2023-05-13T23:22:35.605Z,98374.13
2023-05-13T23:25:02.308Z,98372.50
2023-05-13T23:27:31.506Z,98365.75
2023-05-13T23:29:58.800Z,98367.59
2023-05-13T23:32:26.018Z,98361.38
2023-05-13T23:34:52.908Z,98359.81
2023-05-13T23:37:21.911Z,98358.00
2023-05-13T23:39:48.640Z,98353.16
2023-05-13T23:42:16.500Z,98356.81
2023-05-13T23:44:43.245Z,98362.31
2023-05-13T23:47:10.107Z,98363.16
2023-05-13T23:49:36.920Z,98364.22
2023-05-13T23:52:05.302Z,98364.47
2023-05-13T23:54:32.121Z,98361.00
2023-05-13T23:56:59.163Z,98351.66
2023-05-13T23:59:26.211Z,98358.56
